Time;durP1;ratioP1;P1;durP2;ratioP2;P2;SDS_P1;SDS_P2;PMS_P1;PMS_P2;Temp;Humidity;BMP_temperature;BMP_pressure;BME280_temperature;BME280_humidity;BME280_pressure;Samples;Min_cycle;Max_cycle;Signal;HPM_P1;HPM_P2
2021/09/24 00:02:07;;;;;;;17.65;3.17;;;13.90;99.90;;;14.43;69.88;100593.78;5110071;28;20195;-73
2021/09/24 00:17:16;;;;;;;17.27;3.08;;;13.80;99.90;;;14.33;70.86;100594.38;5111449;28;20175;-72
2021/09/24 00:19:52;;;;;;;23.67;3.10;;;13.80;99.90;;;14.30;71.03;100595.38;5127228;28;20175;-71
2021/09/24 00:31:31;;;;;;;23.30;3.88;;;13.70;99.90;;;14.29;71.97;100606.00;5114922;28;20229;-71
2021/09/24 00:34:00;;;;;;;26.10;4.40;;;13.70;99.90;;;14.29;72.19;100609.50;5109516;28;20274;-70
2021/09/24 00:36:28;;;;;;;24.45;3.70;;;13.70;99.90;;;14.29;72.34;100606.00;5101873;28;20190;-70
2021/09/24 00:38:55;;;;;;;21.65;4.05;;;13.60;99.90;;;14.28;72.34;100607.81;5105665;28;20192;-70
2021/09/24 00:41:21;;;;;;;22.85;3.25;;;13.60;99.90;;;14.26;72.47;100611.44;5106460;28;20686;-72
2021/09/24 00:43:48;;;;;;;17.63;3.08;;;13.60;99.90;;;14.23;72.71;100609.78;5104386;28;20207;-70
2021/09/24 00:46:15;;;;;;;25.45;3.63;;;13.60;99.90;;;14.22;72.77;100618.59;5106415;28;20195;-70
2021/09/24 00:48:42;;;;;;;22.42;4.28;;;13.60;99.90;;;14.21;72.97;100606.41;5113121;28;20191;-70
2021/09/24 00:51:09;;;;;;;24.92;3.70;;;13.60;99.90;;;14.18;72.85;100606.56;5111425;28;20217;-71
2021/09/24 00:53:37;;;;;;;21.25;3.28;;;13.50;99.90;;;14.18;73.04;100606.56;5101276;28;20551;-70
2021/09/24 00:56:05;;;;;;;20.45;3.33;;;13.50;99.90;;;14.15;72.93;100606.72;5106658;28;20215;-70
2021/09/24 00:58:31;;;;;;;21.95;4.30;;;13.50;99.90;;;14.14;73.02;100597.13;5111829;28;20214;-71
2021/09/24 01:00:58;;;;;;;21.27;3.67;;;13.50;99.90;;;14.10;73.09;100608.72;5109709;28;20190;-69
2021/09/24 01:03:25;;;;;;;21.20;3.55;;;13.50;99.90;;;14.10;73.11;100603.47;5119009;28;20206;-70
2021/09/24 01:05:52;;;;;;;25.05;3.35;;;13.50;99.90;;;14.10;73.43;100602.66;5110602;28;20191;-70
2021/09/24 01:08:19;;;;;;;23.58;3.85;;;13.40;99.90;;;14.09;73.31;100604.41;5107290;28;20675;-68
2021/09/24 01:10:49;;;;;;;22.45;3.08;;;13.50;99.90;;;14.10;73.22;100600.84;5108962;28;20206;-70
2021/09/24 01:13:16;;;;;;;23.77;3.47;;;13.40;99.90;;;14.07;73.01;100600.16;5105418;28;20723;-70
2021/09/24 01:15:43;;;;;;;22.48;3.25;;;13.40;99.90;;;14.04;73.29;100601.19;5110139;28;20191;-71
2021/09/24 01:18:10;;;;;;;19.75;3.17;;;13.40;99.90;;;14.01;73.40;100600.50;5104398;28;20194;-71
2021/09/24 01:20:37;;;;;;;19.55;3.20;;;13.40;99.90;;;14.01;73.43;100605.75;5104577;28;20676;-71
2021/09/24 01:23:06;;;;;;;25.23;2.80;;;13.30;99.90;;;13.99;73.57;100611.09;5101965;28;20280;-70
2021/09/24 01:25:32;;;;;;;14.60;3.10;;;13.30;99.90;;;13.99;73.52;100611.09;5106449;28;20179;-70
2021/09/24 01:27:59;;;;;;;19.50;3.45;;;13.30;99.90;;;14.02;73.66;100615.34;5109411;28;20192;-70
2021/09/24 01:30:27;;;;;;;24.30;3.47;;;13.40;99.90;;;14.02;73.54;100616.19;5105059;28;20217;-70
2021/09/24 01:32:54;;;;;;;17.30;3.33;;;13.40;99.90;;;14.01;73.55;100609.25;5106553;28;20213;-71
2021/09/24 01:35:21;;;;;;;18.67;3.47;;;13.40;99.90;;;14.01;73.65;100619.78;5108623;28;20206;-71
2021/09/24 01:37:48;;;;;;;15.27;2.95;;;13.40;99.90;;;14.01;73.43;100632.94;5102206;28;20191;-71
2021/09/24 01:40:19;;;;;;;17.45;3.03;;;13.40;99.90;;;14.02;73.80;100631.13;5098341;28;20249;-71
2021/09/24 01:42:52;;;;;;;26.48;3.90;;;13.50;99.90;;;14.01;73.80;100629.44;5112787;28;20202;-71
2021/09/24 01:45:19;;;;;;;21.10;3.58;;;13.50;99.90;;;14.04;73.55;100635.38;5102259;28;20195;-71
2021/09/24 01:47:46;;;;;;;19.20;3.30;;;13.50;99.90;;;14.05;73.74;100637.06;5117154;27;20571;-71
2021/09/24 01:50:14;;;;;;;21.88;3.60;;;13.50;99.90;;;14.05;73.74;100647.59;5110599;28;20215;-71
2021/09/24 01:52:41;;;;;;;16.95;2.97;;;13.50;99.90;;;14.04;73.90;100645.91;5112418;28;20264;-71
2021/09/24 01:55:10;;;;;;;16.42;3.47;;;13.50;99.90;;;14.04;73.79;100645.91;5108313;28;20194;-70
2021/09/24 01:57:39;;;;;;;19.45;3.40;;;13.50;99.90;;;14.06;73.83;100649.31;5111967;28;20190;-70
2021/09/24 02:00:09;;;;;;;21.38;3.47;;;13.50;99.90;;;14.07;73.96;100651.00;5110016;28;20197;-71
2021/09/24 02:02:36;;;;;;;15.18;2.88;;;13.50;99.90;;;14.06;73.64;100648.47;5101760;28;20215;-70
2021/09/24 02:05:06;;;;;;;23.55;3.78;;;13.50;99.90;;;14.02;74.10;100647.78;5107257;28;20281;-70
2021/09/24 02:07:33;;;;;;;20.35;3.42;;;13.50;99.90;;;14.04;74.21;100656.44;5096338;28;20654;-72
2021/09/24 02:10:00;;;;;;;18.80;3.20;;;13.50;99.90;;;14.06;74.36;100662.47;5111556;28;20210;-70
2021/09/24 02:12:27;;;;;;;20.90;3.05;;;13.50;99.90;;;14.08;74.22;100663.25;5100536;28;20366;-69
2021/09/24 02:14:55;;;;;;;16.92;2.97;;;13.50;99.90;;;14.09;74.29;100659.69;5107833;28;20189;-72
2021/09/24 02:17:21;;;;;;;29.05;3.45;;;13.60;99.90;;;14.10;74.47;100669.28;5102777;28;20187;-71
2021/09/24 02:19:48;;;;;;;16.45;3.15;;;13.60;99.90;;;14.10;74.38;100671.06;5107512;28;20243;-71
2021/09/24 02:22:15;;;;;;;18.92;2.95;;;13.60;99.90;;;14.08;74.33;100658.00;5109885;28;20249;-70
2021/09/24 02:24:42;;;;;;;17.67;3.03;;;13.50;99.90;;;14.08;74.57;100671.16;5109040;28;20201;-71
2021/09/24 02:27:08;;;;;;;16.05;3.33;;;13.60;99.90;;;14.10;74.72;100669.28;5110074;28;20191;-70
2021/09/24 02:29:35;;;;;;;23.33;3.15;;;13.60;99.90;;;14.10;74.59;100671.91;5109114;27;20194;-71
2021/09/24 02:32:04;;;;;;;17.52;3.10;;;13.60;99.90;;;14.09;74.83;100662.31;5107757;28;20233;-70
2021/09/24 02:34:31;;;;;;;21.88;3.33;;;13.60;99.90;;;14.07;75.09;100660.69;5107645;28;20191;-71
2021/09/24 02:36:58;;;;;;;20.50;3.80;;;13.60;99.90;;;14.09;74.95;100664.09;5103743;28;20199;-71
2021/09/24 02:39:24;;;;;;;19.42;2.97;;;13.60;99.90;;;14.10;75.11;100673.69;5109908;28;20369;-69
2021/09/24 02:41:51;;;;;;;20.33;3.50;;;13.60;99.90;;;14.09;75.38;100669.34;5096011;28;20218;-70
2021/09/24 02:44:18;;;;;;;19.65;3.60;;;13.60;99.90;;;14.07;75.18;100677.34;5110736;27;20187;-70
2021/09/24 02:46:46;;;;;;;20.25;3.22;;;13.50;99.90;;;14.06;75.15;100678.28;5101081;28;20199;-70
2021/09/24 02:49:14;;;;;;;16.60;3.05;;;13.50;99.90;;;14.06;75.47;100685.31;5110270;28;20195;-68
2021/09/24 02:51:41;;;;;;;20.42;3.28;;;13.50;99.90;;;14.07;75.41;100698.38;5106063;28;20683;-69
2021/09/24 02:54:08;;;;;;;17.40;3.50;;;13.50;99.90;;;14.08;75.37;100696.63;5101651;28;20190;-73
2021/09/24 02:56:34;;;;;;;16.92;3.00;;;13.50;99.90;;;14.08;75.60;100699.25;5103259;28;20193;-69
2021/09/24 02:59:01;;;;;;;15.35;2.50;;;13.60;99.90;;;14.10;75.37;100713.19;5102666;28;20186;-70
2021/09/24 03:01:28;;;;;;;13.68;2.70;;;13.60;99.90;;;14.10;75.50;100708.75;5099763;28;20198;-70
2021/09/24 03:03:55;;;;;;;16.70;3.33;;;13.60;99.90;;;14.10;75.45;100713.19;5099320;28;20211;-70
2021/09/24 03:06:23;;;;;;;21.10;3.65;;;13.60;99.90;;;14.09;75.42;100712.31;5107769;28;20194;-70
2021/09/24 03:08:50;;;;;;;24.63;3.63;;;13.60;99.90;;;14.09;75.54;100711.47;5104579;28;20543;-70
2021/09/24 03:11:16;;;;;;;21.48;3.47;;;13.60;99.90;;;14.08;75.45;100715.91;5109518;28;20702;-70
2021/09/24 03:13:44;;;;;;;20.10;3.55;;;13.50;99.90;;;14.09;75.93;100725.47;5108773;28;20214;-70
2021/09/24 03:16:11;;;;;;;16.10;2.90;;;13.60;99.90;;;14.08;76.00;100725.56;5107877;28;20243;-71
2021/09/24 03:18:38;;;;;;;16.20;2.80;;;13.60;99.90;;;14.06;75.73;100733.53;5110964;28;20198;-71
2021/09/24 03:21:05;;;;;;;20.23;3.03;;;13.50;99.90;;;14.05;75.79;100720.47;5109139;28;20658;-70
2021/09/24 03:23:33;;;;;;;22.38;3.47;;;13.50;99.90;;;14.04;75.67;100729.28;5109582;28;20219;-71
2021/09/24 03:26:00;;;;;;;25.17;3.45;;;13.50;99.90;;;14.06;76.50;100724.78;5108566;28;20199;-71
2021/09/24 03:28:26;;;;;;;22.70;3.33;;;13.50;99.90;;;14.07;76.00;100732.59;5108568;28;20260;-69
2021/09/24 03:30:53;;;;;;;21.25;3.47;;;13.50;99.90;;;14.09;76.15;100743.03;5109548;28;20214;-71
2021/09/24 03:33:20;;;;;;;17.45;3.20;;;13.50;99.90;;;14.10;76.04;100740.31;5109477;28;20222;-71
2021/09/24 03:35:46;;;;;;;21.98;3.42;;;13.60;99.90;;;14.10;75.99;100737.69;5108993;28;20235;-71
2021/09/24 03:38:13;;;;;;;20.77;3.40;;;13.60;99.90;;;14.06;75.97;100744.06;5109744;28;20547;-71
2021/09/24 03:40:42;;;;;;;21.10;3.17;;;13.50;99.90;;;14.03;76.24;100738.09;5111592;28;20221;-70
2021/09/24 03:43:09;;;;;;;17.13;3.47;;;13.50;99.90;;;14.02;76.35;100731.97;5111193;28;20583;-71
2021/09/24 03:45:36;;;;;;;19.05;3.65;;;13.50;99.90;;;14.02;76.49;100736.38;5100720;28;20278;-70
2021/09/24 03:48:03;;;;;;;18.50;3.38;;;13.50;99.90;;;14.02;76.45;100737.25;5110077;28;20194;-70
2021/09/24 03:50:30;;;;;;;18.83;3.47;;;13.50;99.90;;;14.03;76.30;100738.09;5114145;28;20210;-70
2021/09/24 03:52:57;;;;;;;16.73;3.60;;;13.50;99.90;;;14.02;76.56;100739.00;5109239;28;20219;-70
2021/09/24 03:55:24;;;;;;;19.75;3.60;;;13.50;99.90;;;14.02;76.72;100734.63;5111731;28;20195;-70
2021/09/24 03:57:53;;;;;;;21.40;4.15;;;13.50;99.90;;;14.00;76.39;100728.56;5110811;28;20183;-70
2021/09/24 04:00:20;;;;;;;17.83;2.90;;;13.50;99.90;;;13.98;76.53;100730.47;5113736;28;20564;-68
2021/09/24 04:02:47;;;;;;;25.90;4.20;;;13.50;99.90;;;13.96;76.98;100728.81;5113986;28;20210;-70
2021/09/24 04:05:15;;;;;;;24.40;3.88;;;13.40;99.90;;;13.96;76.74;100737.56;5112298;28;20187;-69
2021/09/24 04:07:42;;;;;;;27.33;3.80;;;13.40;99.90;;;13.93;76.65;100743.00;5113980;28;20186;-71
2021/09/24 04:10:10;;;;;;;17.33;2.95;;;13.40;99.90;;;13.91;77.17;100744.84;5111839;28;20558;-70
2021/09/24 04:12:38;;;;;;;18.98;3.28;;;13.40;99.90;;;13.89;76.95;100741.44;5106230;28;20211;-70
2021/09/24 04:15:07;;;;;;;21.90;3.95;;;13.30;99.90;;;13.86;77.05;100741.59;5112645;28;20674;-71
2021/09/24 04:17:35;;;;;;;19.63;3.97;;;13.30;99.90;;;13.86;77.10;100734.53;5113296;28;20193;-70
2021/09/24 04:20:02;;;;;;;27.17;3.70;;;13.30;99.90;;;13.88;77.34;100736.25;5115072;27;20191;-70
2021/09/24 04:22:29;;;;;;;20.75;3.53;;;13.30;99.90;;;13.85;77.18;100740.75;5110582;28;20210;-69
2021/09/24 04:24:56;;;;;;;21.92;3.33;;;13.30;99.90;;;13.83;77.43;100736.50;5121958;27;20180;-70
2021/09/24 04:27:23;;;;;;;21.27;3.47;;;13.30;99.90;;;13.82;77.39;100745.28;5104078;28;20251;-70
2021/09/24 04:29:50;;;;;;;22.15;3.45;;;13.30;99.90;;;13.79;77.58;100748.94;5105819;28;20218;-71
2021/09/24 04:32:18;;;;;;;28.80;3.85;;;13.20;99.90;;;13.79;77.89;100750.72;5106063;28;20227;-70
2021/09/24 04:34:44;;;;;;;18.30;2.92;;;13.30;99.90;;;13.80;77.77;100761.16;5100562;28;20202;-71
2021/09/24 04:37:11;;;;;;;22.45;3.40;;;13.30;99.90;;;13.83;77.73;100762.81;5095016;28;20191;-70
2021/09/24 04:39:38;;;;;;;22.23;3.30;;;13.30;99.90;;;13.86;77.67;100762.66;5106743;28;20191;-70
2021/09/24 04:42:05;;;;;;;18.52;3.38;;;13.30;99.90;;;13.85;77.64;100771.44;5096000;28;20215;-69
2021/09/24 04:44:33;;;;;;;29.50;3.58;;;13.30;99.90;;;13.85;77.60;100766.19;5095957;28;20195;-70
2021/09/24 04:47:00;;;;;;;23.60;3.20;;;13.30;99.90;;;13.85;77.54;100771.44;5115784;27;20725;-70
2021/09/24 04:49:29;;;;;;;17.08;2.63;;;13.30;99.90;;;13.86;77.41;100774.00;5106631;28;20193;-70
2021/09/24 04:51:55;;;;;;;20.17;3.45;;;13.30;99.90;;;13.87;77.60;100766.97;5112720;28;20210;-68
2021/09/24 04:54:22;;;;;;;23.30;3.60;;;13.30;99.90;;;13.88;77.74;100761.63;5111165;28;20311;-71
2021/09/24 04:56:49;;;;;;;18.67;3.40;;;13.40;99.90;;;13.88;77.55;100761.63;5112700;28;20202;-71
2021/09/24 04:59:16;;;;;;;19.02;3.13;;;13.40;99.90;;;13.89;77.50;100767.75;5112733;28;20190;-71
2021/09/24 05:01:42;;;;;;;25.27;3.60;;;13.30;99.90;;;13.89;77.32;100770.38;5113501;28;20194;-70
2021/09/24 05:04:09;;;;;;;21.88;4.25;;;13.40;99.90;;;13.89;77.56;100767.75;5110739;28;20655;-70
2021/09/24 05:06:38;;;;;;;17.73;3.67;;;13.30;99.90;;;13.87;77.55;100769.59;5104927;28;20191;-71
2021/09/24 05:09:05;;;;;;;26.10;3.78;;;13.40;99.90;;;13.85;77.26;100769.69;5112187;28;20206;-71
2021/09/24 05:11:32;;;;;;;22.00;3.25;;;13.30;99.90;;;13.87;77.59;100761.69;5110109;28;20210;-70
2021/09/24 05:13:59;;;;;;;21.30;3.45;;;13.30;99.90;;;13.87;77.47;100774.84;5114290;28;20187;-70
2021/09/24 05:16:26;;;;;;;17.15;3.58;;;13.30;99.90;;;13.86;77.66;100771.38;5117561;27;20187;-70
2021/09/24 05:18:52;;;;;;;20.63;3.38;;;13.30;99.90;;;13.86;77.69;100774.00;5113067;28;20217;-72
2021/09/24 05:21:19;;;;;;;14.82;2.72;;;13.30;99.90;;;13.88;77.69;100771.31;5112416;28;20273;-71
2021/09/24 05:23:47;;;;;;;27.20;3.55;;;13.40;99.90;;;13.86;77.54;100774.00;5113183;28;20229;-72
2021/09/24 05:26:14;;;;;;;23.10;3.25;;;13.40;99.90;;;13.88;77.66;100779.22;5111515;28;20686;-70
2021/09/24 05:28:41;;;;;;;19.77;2.88;;;13.40;99.90;;;13.88;77.75;100776.59;5114125;28;20251;-70
2021/09/24 05:31:08;;;;;;;19.08;3.70;;;13.40;99.90;;;13.88;77.75;100781.84;5129987;27;20621;-73
2021/09/24 05:33:35;;;;;;;27.05;3.30;;;13.30;99.90;;;13.86;77.99;100787.16;5130104;27;20214;-70
2021/09/24 05:36:01;;;;;;;21.88;3.28;;;13.30;99.90;;;13.87;77.84;100803.78;5108712;28;20743;-71
2021/09/24 05:38:28;;;;;;;19.65;3.53;;;13.30;99.90;;;13.82;77.92;100790.03;5112633;28;20194;-71
2021/09/24 05:40:56;;;;;;;25.67;3.83;;;13.30;99.90;;;13.87;77.64;100801.16;5113856;28;20183;-70
2021/09/24 05:43:23;;;;;;;17.13;3.08;;;13.30;99.90;;;13.85;77.93;100795.97;5112699;28;20760;-70
2021/09/24 05:45:50;;;;;;;17.35;3.50;;;13.30;99.90;;;13.84;78.19;100804.81;5112406;28;20648;-69
2021/09/24 05:48:16;;;;;;;20.83;3.13;;;13.30;99.90;;;13.86;78.15;100804.75;5105736;28;20186;-71
2021/09/24 05:50:43;;;;;;;26.98;3.35;;;13.30;99.90;;;13.88;78.02;100807.28;5113432;28;20202;-71
2021/09/24 05:53:10;;;;;;;21.50;3.58;;;13.30;99.90;;;13.88;77.79;100806.34;5112719;28;20264;-71
2021/09/24 05:55:38;;;;;;;13.65;3.17;;;13.30;99.90;;;13.86;78.26;100812.63;5115217;28;20187;-70
2021/09/24 05:58:07;;;;;;;21.08;3.58;;;13.30;99.90;;;13.84;77.89;100810.09;5105883;28;20207;-71
2021/09/24 06:00:33;;;;;;;18.55;3.03;;;13.30;99.90;;;13.84;78.09;100809.22;5111800;28;20655;-70
2021/09/24 06:03:00;;;;;;;23.65;2.85;;;13.30;99.90;;;13.85;77.86;100813.53;5112551;28;20215;-70
2021/09/24 06:05:27;;;;;;;19.10;3.30;;;13.30;99.90;;;13.87;78.24;100814.31;5111128;28;20183;-70
2021/09/24 06:07:54;;;;;;;19.75;3.50;;;13.30;99.90;;;13.88;77.98;100810.78;5099629;28;20194;-70
2021/09/24 06:10:21;;;;;;;17.83;2.90;;;13.30;99.90;;;13.86;77.90;100818.72;5110142;28;20194;-70
2021/09/24 06:12:49;;;;;;;22.05;3.55;;;13.30;99.90;;;13.83;77.99;100811.00;5112167;28;20671;-71
2021/09/24 06:15:20;;;;;;;17.63;3.35;;;13.30;99.90;;;13.79;78.23;100814.72;5111875;28;20195;-70
2021/09/24 06:17:48;;;;;;;19.27;3.30;;;13.30;99.90;;;13.78;78.13;100822.69;5108409;28;20198;-70
2021/09/24 06:20:17;;;;;;;21.00;3.20;;;13.30;99.90;;;13.77;78.29;100815.69;5108930;28;20196;-71
2021/09/24 06:22:44;;;;;;;19.98;3.30;;;13.30;99.90;;;13.78;78.41;100838.47;5114804;27;20577;-68
2021/09/24 06:25:12;;;;;;;24.27;3.35;;;13.30;99.90;;;13.79;78.23;100829.63;5111163;28;20194;-71
2021/09/24 06:27:39;;;;;;;19.00;2.97;;;13.30;99.90;;;13.79;78.46;100837.53;5112995;28;20224;-71
2021/09/24 06:30:10;;;;;;;21.85;3.42;;;13.30;99.90;;;13.77;78.29;100842.88;5108780;28;20218;-70
2021/09/24 06:32:39;;;;;;;22.48;3.67;;;13.30;99.90;;;13.76;78.49;100843.78;5107863;28;20211;-71
2021/09/24 06:35:07;;;;;;;16.75;3.20;;;13.30;99.90;;;13.76;78.48;100845.56;5111717;28;20626;-71
2021/09/24 06:37:34;;;;;;;15.48;3.25;;;13.20;99.90;;;13.75;78.30;100843.84;5112939;28;20187;-71
2021/09/24 06:40:02;;;;;;;20.30;3.20;;;13.20;99.90;;;13.75;78.68;100859.63;5106500;28;20643;-71
2021/09/24 06:42:28;;;;;;;20.38;3.38;;;13.20;99.90;;;13.73;78.66;100851.00;5100246;28;20217;-70
2021/09/24 06:44:57;;;;;;;17.40;3.45;;;13.20;99.90;;;13.73;78.66;100853.63;5102709;28;20190;-69
2021/09/24 06:47:24;;;;;;;20.30;3.75;;;13.20;99.90;;;13.76;78.80;100859.56;5110535;28;20229;-70
2021/09/24 06:49:52;;;;;;;18.42;3.00;;;13.30;99.90;;;13.79;78.61;100861.19;5103213;28;20659;-71
2021/09/24 06:52:20;;;;;;;17.88;3.28;;;13.30;99.90;;;13.82;78.73;100861.03;5100922;28;20272;-70
2021/09/24 06:54:47;;;;;;;22.25;3.20;;;13.30;99.90;;;13.80;78.75;100862.91;5107243;28;20231;-71
2021/09/24 06:57:13;;;;;;;20.75;2.83;;;13.30;99.90;;;13.83;78.98;100862.78;5097286;28;20659;-73
2021/09/24 06:59:40;;;;;;;22.33;2.83;;;13.40;99.90;;;13.84;79.01;100869.72;5108666;28;20643;-70
2021/09/24 07:02:08;;;;;;;14.55;2.60;;;13.40;99.90;;;13.84;78.93;100875.00;5100434;28;20575;-72
2021/09/24 07:04:34;;;;;;;19.75;3.38;;;13.40;99.90;;;13.86;79.04;100875.78;5103128;28;20187;-70
2021/09/24 07:07:03;;;;;;;22.25;3.67;;;13.40;99.90;;;13.86;79.39;100871.34;5103283;28;20199;-72
2021/09/24 07:09:30;;;;;;;19.65;3.42;;;13.40;99.90;;;13.92;79.46;100871.97;5110307;28;20568;-70
2021/09/24 07:11:56;;;;;;;25.25;4.90;;;13.50;99.90;;;13.97;79.30;100870.81;5106725;28;20296;-71
2021/09/24 07:14:23;;;;;;;22.48;3.10;;;13.50;99.90;;;14.04;79.14;100874.00;5101714;28;20220;-71
2021/09/24 07:16:51;;;;;;;23.02;3.67;;;13.50;99.90;;;14.06;79.08;100875.66;5103201;28;20191;-71
2021/09/24 07:19:17;;;;;;;18.48;4.07;;;13.60;99.90;;;14.10;79.09;100871.91;5122015;27;20533;-71
2021/09/24 07:21:45;;;;;;;17.35;3.60;;;13.60;99.90;;;14.15;79.03;100872.53;5100585;28;20189;-70
2021/09/24 07:24:13;;;;;;;21.15;4.05;;;13.70;99.90;;;14.21;79.03;100864.38;5099673;28;20210;-72
2021/09/24 07:26:40;;;;;;;18.52;5.50;;;13.70;99.90;;;14.28;78.80;100876.31;5101071;28;20186;-70
2021/09/24 07:29:06;;;;;;;26.90;5.00;;;13.80;99.90;;;14.35;78.92;100876.88;5109234;28;20194;-71
2021/09/24 07:31:33;;;;;;;20.83;3.15;;;13.90;99.90;;;14.38;78.62;100867.03;5106207;28;20217;-70
2021/09/24 07:34:00;;;;;;;22.48;4.18;;;13.90;99.90;;;14.43;78.25;100872.06;5105272;28;20256;-71
2021/09/24 07:36:28;;;;;;;22.10;3.78;;;14.00;99.90;;;14.48;78.53;100868.28;5102977;28;20655;-71
2021/09/24 07:38:55;;;;;;;18.48;3.58;;;14.00;99.90;;;14.51;78.41;100878.66;5109435;28;20190;-70
2021/09/24 07:41:24;;;;;;;20.33;3.53;;;14.00;99.90;;;14.58;78.14;100873.91;5110417;28;20600;-70
2021/09/24 07:43:53;;;;;;;14.73;3.95;;;14.10;99.90;;;14.62;77.83;100880.72;5104979;28;20207;-69
2021/09/24 07:46:22;;;;;;;21.33;4.10;;;14.10;99.90;;;14.65;77.95;100865.59;5105000;28;20278;-70
2021/09/24 07:48:50;;;;;;;17.15;3.28;;;14.20;99.90;;;14.68;77.20;100873.38;5108630;28;20191;-70
2021/09/24 07:51:18;;;;;;;20.65;3.28;;;14.20;99.90;;;14.72;77.03;100874.03;5112155;28;20718;-70
2021/09/24 07:53:45;;;;;;;24.23;5.20;;;14.30;99.90;;;14.76;77.00;100875.59;5116916;28;20694;-71
2021/09/24 07:56:12;;;;;;;17.75;4.20;;;14.30;99.90;;;14.79;76.87;100878.91;5112768;28;20197;-69
2021/09/24 07:58:41;;;;;;;19.95;4.93;;;14.40;99.90;;;14.87;76.88;100870.59;5119364;28;20199;-70
2021/09/24 08:01:09;;;;;;;19.55;4.13;;;14.50;99.90;;;14.93;76.69;100878.19;5102147;28;20191;-70
2021/09/24 08:03:37;;;;;;;22.90;5.80;;;14.50;99.90;;;14.99;76.34;100877.84;5103873;28;20552;-69
2021/09/24 08:06:05;;;;;;;14.13;3.58;;;14.60;99.90;;;15.05;76.25;100870.47;5105006;28;20195;-70
2021/09/24 08:08:32;;;;;;;18.70;4.78;;;14.60;99.90;;;15.12;75.93;100880.72;5107816;28;20183;-70
2021/09/24 08:11:01;;;;;;;22.98;4.30;;;14.70;99.90;;;15.19;76.00;100876.81;5100627;28;20183;-70
2021/09/24 08:13:28;;;;;;;20.75;4.07;;;14.70;99.90;;;15.22;75.76;100879.28;5107761;28;20229;-71
2021/09/24 08:15:57;;;;;;;24.05;6.68;;;14.80;99.90;;;15.27;75.52;100875.44;5109068;28;20183;-70
2021/09/24 08:18:24;;;;;;;21.98;4.82;;;14.80;99.90;;;15.32;75.18;100872.56;5107328;28;20199;-71
2021/09/24 08:20:52;;;;;;;15.95;3.65;;;14.90;99.90;;;15.37;75.23;100881.09;5109452;28;20270;-70
2021/09/24 08:23:19;;;;;;;19.58;3.92;;;15.00;99.90;;;15.38;74.61;100877.50;5095514;28;20702;-71
2021/09/24 08:25:46;;;;;;;19.20;3.80;;;15.00;99.90;;;15.42;74.58;100879.09;5106993;28;20198;-70
2021/09/24 08:28:14;;;;;;;13.93;3.00;;;15.00;99.90;;;15.46;74.13;100885.88;5108985;28;20194;-71
2021/09/24 08:30:41;;;;;;;18.02;3.78;;;15.10;99.90;;;15.54;73.88;100895.06;5108123;28;20194;-70
2021/09/24 08:33:09;;;;;;;22.88;3.75;;;15.20;99.90;;;15.63;73.77;100883.16;5113578;27;20276;-70
2021/09/24 08:35:38;;;;;;;17.27;3.72;;;15.30;99.90;;;15.72;73.61;100878.25;5105241;28;20202;-70
2021/09/24 08:38:05;;;;;;;20.13;3.30;;;15.40;99.90;;;15.77;73.31;100883.25;5100475;28;20622;-69
2021/09/24 08:40:36;;;;;;;19.10;3.42;;;15.40;99.90;;;15.80;72.73;100881.28;5111891;28;20609;-71
2021/09/24 08:43:04;;;;;;;17.45;3.45;;;15.50;99.90;;;15.86;72.35;100880.06;5106653;28;20219;-70
2021/09/24 08:45:33;;;;;;;15.15;3.47;;;15.50;99.90;;;15.92;71.75;100890.31;5102810;28;20199;-70
2021/09/24 08:48:02;;;;;;;16.02;3.95;;;15.60;99.90;;;16.00;71.99;100893.34;5109186;28;20182;-71
2021/09/24 08:50:34;;;;;;;14.02;3.30;;;15.70;99.90;;;16.06;71.56;100885.94;5104718;28;20195;-70
2021/09/24 08:53:01;;;;;;;23.75;3.30;;;15.70;99.90;;;16.11;71.25;100901.50;5107580;28;20211;-70
2021/09/24 08:55:29;;;;;;;16.58;3.22;;;15.80;99.90;;;16.19;70.49;100891.38;5125765;27;20199;-71
2021/09/24 08:57:56;;;;;;;15.38;3.03;;;15.90;99.90;;;16.20;70.15;100895.72;5110863;28;20187;-70
2021/09/24 09:00:24;;;;;;;22.23;4.32;;;15.90;99.90;;;16.22;69.76;100885.91;5111212;28;20191;-69
2021/09/24 09:02:55;;;;;;;16.00;3.20;;;15.90;99.90;;;16.28;69.72;100898.75;5107785;28;20240;-69
2021/09/24 09:05:23;;;;;;;18.67;3.70;;;16.00;99.90;;;16.32;69.48;100889.72;5111210;28;20278;-70
2021/09/24 09:08:04;;;;;;;15.18;3.60;;;16.00;99.90;;;16.38;69.41;100889.34;5108212;28;20198;-70
2021/09/24 09:10:39;;;;;;;16.15;3.30;;;16.10;99.90;;;16.46;69.27;100900.34;5112374;28;20202;-70
2021/09/24 09:13:09;;;;;;;19.17;3.28;;;16.20;99.90;;;16.49;68.78;100910.75;5104532;28;20219;-69
2021/09/24 09:15:37;;;;;;;16.55;3.15;;;16.20;99.90;;;16.51;68.45;100905.38;5109211;28;20203;-70
2021/09/24 09:18:05;;;;;;;20.23;3.40;;;16.30;99.90;;;16.57;68.64;100921.72;5106366;28;20191;-70
2021/09/24 09:20:33;;;;;;;17.48;3.42;;;16.30;99.90;;;16.63;68.56;100912.59;5109285;28;20191;-70
2021/09/24 09:23:11;;;;;;;17.90;3.55;;;16.40;99.90;;;16.66;68.46;100921.16;5106024;28;20224;-71
2021/09/24 09:25:43;;;;;;;20.55;3.40;;;16.40;99.90;;;16.68;68.75;100916.63;5100768;28;20194;-71
2021/09/24 09:28:13;;;;;;;14.13;2.58;;;16.50;99.90;;;16.75;68.47;100914.47;5105670;28;20205;-72
2021/09/24 09:30:42;;;;;;;15.63;3.00;;;16.60;99.90;;;16.78;68.21;100911.69;5107295;28;20195;-70
2021/09/24 09:33:15;;;;;;;14.95;2.83;;;16.60;99.90;;;16.78;68.28;100909.03;5100660;28;20214;-71
2021/09/24 09:35:45;;;;;;;16.75;3.30;;;16.60;99.90;;;16.77;67.97;100918.75;5109070;28;20195;-71
2021/09/24 09:38:25;;;;;;;13.77;2.80;;;16.60;99.90;;;16.76;68.18;100921.47;5107719;28;20191;-71
2021/09/24 09:40:56;;;;;;;23.42;3.00;;;16.60;99.90;;;16.78;68.14;100919.59;5100736;28;20222;-70
2021/09/24 09:43:30;;;;;;;12.88;2.53;;;16.60;99.90;;;16.83;68.28;100918.38;5103680;28;20222;-70
2021/09/24 09:45:59;;;;;;;18.77;3.10;;;16.70;99.90;;;16.84;68.36;100912.16;5111702;28;20299;-69
2021/09/24 09:48:26;;;;;;;17.70;2.63;;;16.70;99.90;;;16.89;68.44;100912.72;5110388;28;20194;-70
2021/09/24 09:50:53;;;;;;;18.65;3.47;;;16.70;99.90;;;16.92;68.19;100920.47;5104240;28;20199;-70
2021/09/24 09:53:22;;;;;;;15.40;2.72;;;16.80;99.90;;;16.94;68.63;100931.81;5108600;28;20221;-70
2021/09/24 09:55:54;;;;;;;15.77;2.97;;;16.80;99.90;;;16.94;68.51;100926.53;5113006;28;20183;-69
2021/09/24 09:58:25;;;;;;;21.52;2.88;;;16.80;99.90;;;16.92;68.45;100928.41;5110804;28;20195;-70
2021/09/24 10:01:04;;;;;;;13.68;2.90;;;16.80;99.90;;;16.88;68.50;100918.94;5110328;28;20256;-70
2021/09/24 10:03:37;;;;;;;15.88;2.97;;;16.80;99.90;;;16.86;68.97;100926.09;5105615;28;20304;-70
2021/09/24 10:06:21;;;;;;;14.85;2.85;;;16.80;99.90;;;16.91;68.99;100915.28;5107569;28;20252;-70
2021/09/24 10:08:52;;;;;;;21.17;3.00;;;16.80;99.90;;;16.89;69.04;100912.72;5107297;28;20194;-68
2021/09/24 10:11:20;;;;;;;15.30;2.60;;;16.90;99.90;;;16.86;69.54;100923.47;5110955;28;20194;-72
2021/09/24 10:13:54;;;;;;;17.58;2.90;;;16.80;99.90;;;16.85;69.48;100927.06;5108326;28;20218;-70
2021/09/24 10:16:25;;;;;;;18.63;2.80;;;16.80;99.90;;;16.83;69.84;100934.22;5107344;28;20186;-72
2021/09/24 10:18:52;;;;;;;19.75;3.42;;;16.80;99.90;;;16.86;69.56;100928.75;5110385;28;20195;-70
2021/09/24 10:21:20;;;;;;;17.52;2.75;;;16.80;99.90;;;16.94;70.15;100923.03;5110249;28;20566;-71
2021/09/24 10:23:49;;;;;;;14.50;2.90;;;16.90;99.90;;;17.01;69.94;100922.53;5106984;28;20706;-69
2021/09/24 10:26:24;;;;;;;13.88;2.38;;;17.00;99.90;;;17.05;69.94;100913.50;5109630;28;20269;-70
2021/09/24 10:28:59;;;;;;;14.10;3.15;;;17.00;99.90;;;17.07;69.94;100903.66;5109621;28;20198;-73
2021/09/24 10:31:28;;;;;;;16.52;3.42;;;17.10;99.90;;;17.11;70.26;100907.81;5111487;28;20205;-74